createdAt,value
2022-09-28T00:01:26.254Z,11.46
2022-09-28T00:03:57.543Z,12.24
2022-09-28T00:06:27.485Z,12.25
2022-09-28T00:08:55.954Z,12.95
2022-09-28T00:11:28.319Z,12.91
2022-09-28T00:14:00.153Z,12.73
2022-09-28T00:16:32.704Z,13.23
2022-09-28T00:19:01.249Z,12.64
2022-09-28T00:21:31.883Z,11.37
2022-09-28T00:24:15.923Z,11.30
2022-09-28T00:26:47.454Z,11.33
2022-09-28T00:29:22.057Z,11.79
2022-09-28T00:31:57.108Z,10.01
2022-09-28T00:34:25.547Z,11.01
2022-09-28T00:36:54.090Z,10.76
2022-09-28T00:39:22.494Z,10.34
2022-09-28T00:41:51.550Z,11.27
2022-09-28T00:44:38.411Z,11.98
2022-09-28T00:47:37.999Z,11.88
2022-09-28T00:50:11.974Z,11.33
2022-09-28T00:52:44.894Z,11.53
2022-09-28T00:55:17.371Z,11.14
2022-09-28T00:57:51.635Z,10.50
2022-09-28T01:00:20.584Z,10.93
2022-09-28T01:02:50.389Z,11.44
2022-09-28T01:05:19.462Z,11.94
2022-09-28T01:07:48.872Z,11.21
2022-09-28T01:10:17.462Z,10.98
2022-09-28T01:12:45.877Z,11.58
2022-09-28T01:15:15.619Z,12.13
2022-09-28T01:17:59.962Z,12.40
2022-09-28T01:20:58.201Z,11.05
2022-09-28T01:24:00.830Z,11.67
2022-09-28T01:26:57.630Z,11.98
2022-09-28T01:29:40.546Z,12.20
2022-09-28T01:32:17.906Z,12.14
2022-09-28T01:34:57.409Z,11.93
2022-09-28T01:37:32.120Z,10.46
2022-09-28T01:40:02.902Z,10.96
2022-09-28T01:42:35.580Z,9.76
2022-09-28T01:45:08.440Z,10.11
2022-09-28T01:47:41.073Z,10.96
2022-09-28T01:50:14.178Z,10.83
2022-09-28T01:52:49.034Z,11.02
2022-09-28T01:55:26.862Z,11.78
2022-09-28T01:58:03.317Z,11.06
2022-09-28T02:00:32.149Z,10.50
2022-09-28T02:03:05.739Z,11.19
2022-09-28T02:05:37.701Z,11.78
2022-09-28T02:08:10.322Z,10.85
2022-09-28T02:10:44.920Z,11.12
2022-09-28T02:13:21.058Z,10.31
2022-09-28T02:15:55.541Z,9.90
2022-09-28T02:18:24.034Z,9.63
2022-09-28T02:21:01.626Z,10.00
2022-09-28T02:23:32.145Z,10.84
2022-09-28T02:26:06.040Z,10.26
2022-09-28T02:28:35.838Z,9.53
2022-09-28T02:31:04.498Z,10.87
2022-09-28T02:33:37.805Z,11.21
2022-09-28T02:36:07.327Z,11.89
2022-09-28T02:38:37.159Z,11.77
2022-09-28T02:41:12.333Z,11.72
2022-09-28T02:43:53.967Z,11.27
2022-09-28T02:46:30.926Z,11.17
2022-09-28T02:49:21.325Z,12.05
2022-09-28T02:52:04.244Z,11.23
2022-09-28T02:54:44.179Z,11.94
2022-09-28T02:57:20.675Z,12.60
2022-09-28T02:59:58.659Z,12.88
2022-09-28T03:02:31.797Z,13.00
2022-09-28T03:05:17.899Z,12.88
2022-09-28T03:07:54.622Z,13.12
2022-09-28T03:10:28.208Z,13.16
2022-09-28T03:12:57.400Z,13.17
2022-09-28T03:15:29.033Z,13.19
2022-09-28T03:17:58.490Z,11.69
2022-09-28T03:20:27.569Z,11.85
2022-09-28T03:23:20.100Z,12.46
2022-09-28T03:25:45.467Z,12.31
2022-09-28T03:28:13.879Z,12.09
2022-09-28T03:30:43.760Z,11.44
2022-09-28T03:33:12.157Z,11.35
2022-09-28T03:35:40.869Z,10.40
2022-09-28T03:38:09.295Z,11.59
2022-09-28T03:40:37.782Z,10.49
2022-09-28T03:43:06.242Z,11.60
2022-09-28T03:45:34.755Z,11.80
2022-09-28T03:48:04.732Z,11.52
2022-09-28T03:50:33.202Z,11.92
2022-09-28T03:53:04.978Z,10.62
2022-09-28T03:55:33.577Z,11.18
2022-09-28T03:58:01.971Z,11.45
2022-09-28T04:00:30.403Z,11.95
2022-09-28T04:02:58.796Z,9.52
2022-09-28T04:05:28.568Z,10.57
2022-09-28T04:07:57.829Z,11.45
2022-09-28T04:10:26.805Z,10.77
2022-09-28T04:12:56.653Z,11.13
2022-09-28T04:15:25.751Z,11.57
2022-09-28T04:17:54.476Z,11.25
2022-09-28T04:20:23.028Z,11.35
2022-09-28T04:22:52.841Z,12.10
2022-09-28T04:25:21.296Z,11.37
2022-09-28T04:28:08.677Z,11.24
2022-09-28T04:30:37.076Z,10.30
2022-09-28T04:33:05.612Z,10.09
2022-09-28T04:35:34.088Z,10.92
2022-09-28T04:38:03.854Z,11.33
2022-09-28T04:40:32.555Z,11.75
2022-09-28T04:43:00.989Z,11.03
2022-09-28T04:45:29.497Z,11.29
2022-09-28T04:47:57.917Z,11.52
2022-09-28T04:50:26.407Z,12.29
2022-09-28T04:52:54.803Z,12.23
2022-09-28T04:55:24.602Z,12.26
2022-09-28T04:57:52.988Z,12.71
2022-09-28T05:00:21.713Z,12.61
2022-09-28T05:02:50.599Z,11.82
2022-09-28T05:05:19.016Z,12.06
2022-09-28T05:07:47.495Z,11.27
2022-09-28T05:10:16.025Z,11.24
2022-09-28T05:12:45.778Z,11.79
2022-09-28T05:15:14.173Z,11.00
2022-09-28T05:17:42.578Z,11.19
2022-09-28T05:20:11.826Z,12.01
2022-09-28T05:22:40.278Z,11.44
2022-09-28T05:25:09.391Z,11.40
2022-09-28T05:27:37.851Z,11.85
2022-09-28T05:30:10.847Z,11.48
2022-09-28T05:32:41.768Z,12.05
2022-09-28T05:35:11.749Z,11.78
2022-09-28T05:37:41.167Z,10.59
2022-09-28T05:40:10.763Z,11.17
2022-09-28T05:42:39.320Z,11.44
2022-09-28T05:45:10.639Z,11.53
2022-09-28T05:47:39.831Z,11.79
2022-09-28T05:50:11.655Z,10.87
2022-09-28T05:52:40.268Z,11.28
2022-09-28T05:55:09.970Z,11.55
2022-09-28T05:57:38.477Z,11.29
2022-09-28T06:00:10.272Z,11.45
2022-09-28T06:02:39.145Z,10.30
2022-09-28T06:05:08.365Z,11.00
2022-09-28T06:07:36.806Z,10.67
2022-09-28T06:10:05.855Z,10.31
2022-09-28T06:12:35.567Z,11.06
2022-09-28T06:15:04.382Z,10.53
2022-09-28T06:17:34.142Z,10.08
2022-09-28T06:20:02.788Z,9.72
2022-09-28T06:22:31.257Z,9.62
2022-09-28T06:24:59.693Z,10.09
2022-09-28T06:27:28.309Z,10.72
2022-09-28T06:29:56.707Z,11.20
2022-09-28T06:32:25.132Z,11.72
2022-09-28T06:34:56.508Z,10.19
2022-09-28T06:37:26.075Z,10.67
2022-09-28T06:39:55.282Z,11.01
2022-09-28T06:42:23.706Z,11.29
2022-09-28T06:44:52.130Z,11.20
2022-09-28T06:47:20.551Z,11.22
2022-09-28T06:49:51.299Z,11.20
2022-09-28T06:52:21.088Z,11.39
2022-09-28T06:54:49.440Z,11.34
2022-09-28T06:57:17.831Z,11.70
2022-09-28T06:59:46.290Z,12.09
2022-09-28T07:02:15.344Z,12.17
2022-09-28T07:04:44.376Z,11.95
2022-09-28T07:07:13.053Z,11.39
2022-09-28T07:09:47.676Z,11.95
2022-09-28T07:12:18.788Z,11.93
2022-09-28T07:14:48.285Z,10.85
2022-09-28T07:17:17.149Z,10.36
2022-09-28T07:19:45.618Z,10.78
2022-09-28T07:22:18.424Z,11.43
2022-09-28T07:24:49.005Z,11.15
2022-09-28T07:27:17.721Z,11.39
2022-09-28T07:29:46.449Z,11.39
2022-09-28T07:32:14.915Z,11.09
2022-09-28T07:34:44.643Z,10.75
2022-09-28T07:37:13.411Z,10.67
2022-09-28T07:39:59.465Z,11.48
2022-09-28T07:42:30.394Z,11.51
2022-09-28T07:44:59.227Z,11.96
2022-09-28T07:47:33.953Z,11.73
2022-09-28T07:50:03.479Z,11.64
2022-09-28T07:52:31.877Z,12.16
2022-09-28T07:55:04.529Z,12.50
2022-09-28T07:57:36.458Z,12.91
2022-09-28T08:00:07.592Z,13.04
2022-09-28T08:02:36.042Z,12.79
2022-09-28T08:05:04.826Z,12.03
2022-09-28T08:07:34.513Z,12.38
2022-09-28T08:10:02.929Z,12.57
2022-09-28T08:12:31.331Z,12.08
2022-09-28T08:15:01.144Z,11.76
2022-09-28T08:17:29.806Z,12.38
2022-09-28T08:20:15.828Z,12.41
2022-09-28T08:22:44.261Z,11.56
2022-09-28T08:25:12.728Z,11.98
2022-09-28T08:27:41.108Z,11.80
2022-09-28T08:30:12.110Z,12.20
2022-09-28T08:32:42.563Z,12.31
2022-09-28T08:35:11.022Z,12.14
2022-09-28T08:37:39.464Z,12.99
2022-09-28T08:40:14.414Z,13.06
2022-09-28T08:42:44.928Z,13.33
2022-09-28T08:45:20.550Z,12.91
2022-09-28T08:48:13.297Z,13.62
2022-09-28T08:50:50.136Z,13.81
2022-09-28T08:53:33.205Z,13.82
2022-09-28T08:56:05.387Z,13.81
2022-09-28T08:58:38.814Z,13.23
2022-09-28T09:01:16.657Z,12.98
2022-09-28T09:03:46.321Z,12.67
2022-09-28T09:06:27.665Z,13.10
2022-09-28T09:09:08.596Z,12.65
2022-09-28T09:11:52.371Z,12.18
2022-09-28T09:14:52.620Z,12.95
2022-09-28T09:17:28.944Z,12.56
2022-09-28T09:20:07.193Z,12.33
2022-09-28T09:22:41.750Z,13.54
2022-09-28T09:25:20.838Z,13.64
2022-09-28T09:28:04.730Z,12.95
2022-09-28T09:30:41.177Z,13.37
2022-09-28T09:33:40.647Z,13.25
2022-09-28T09:36:32.132Z,13.05
2022-09-28T09:39:13.214Z,12.95
2022-09-28T09:41:54.578Z,12.96
2022-09-28T09:44:48.763Z,13.52
2022-09-28T09:47:22.070Z,13.65
2022-09-28T09:49:57.202Z,13.78
2022-09-28T09:55:17.550Z,13.41
2022-09-28T09:57:53.376Z,13.36
2022-09-28T10:00:22.317Z,13.37
2022-09-28T10:02:51.871Z,13.08
2022-09-28T10:05:27.701Z,13.10
2022-09-28T10:08:01.932Z,12.82
2022-09-28T10:10:34.477Z,12.90
2022-09-28T10:13:04.416Z,13.05
2022-09-28T10:15:35.259Z,12.87
2022-09-28T10:18:07.645Z,13.16
2022-09-28T10:20:40.557Z,12.83
2022-09-28T10:23:18.599Z,13.43
2022-09-28T10:25:50.406Z,13.44
2022-09-28T10:28:25.357Z,13.57
2022-09-28T10:30:53.919Z,13.54
2022-09-28T10:33:33.699Z,13.79
2022-09-28T10:36:08.449Z,13.45
2022-09-28T10:38:37.226Z,13.09
2022-09-28T10:41:13.535Z,12.84
2022-09-28T10:44:06.297Z,13.14
2022-09-28T10:46:39.529Z,13.37
2022-09-28T10:49:14.496Z,13.38
2022-09-28T10:51:46.708Z,13.82
2022-09-28T10:54:17.632Z,13.85
2022-09-28T10:56:46.997Z,13.43
2022-09-28T10:59:26.339Z,13.59
2022-09-28T11:01:57.699Z,13.65
2022-09-28T11:04:30.214Z,13.31
2022-09-28T11:07:01.835Z,13.21
2022-09-28T11:09:32.349Z,13.13
2022-09-28T11:12:04.233Z,13.03
2022-09-28T11:14:42.222Z,12.79
2022-09-28T11:17:25.115Z,13.25
2022-09-28T11:19:54.475Z,13.46
2022-09-28T11:22:28.950Z,13.88
2022-09-28T11:25:31.410Z,14.20
2022-09-28T11:28:04.665Z,13.61
2022-09-28T11:30:39.050Z,13.42
2022-09-28T11:33:14.978Z,13.89
2022-09-28T11:35:51.296Z,13.88
2022-09-28T11:38:37.508Z,13.74
2022-09-28T11:41:33.815Z,13.23
2022-09-28T11:44:25.447Z,13.36
2022-09-28T11:47:10.989Z,13.58
2022-09-28T11:49:42.726Z,13.55
2022-09-28T11:52:19.739Z,13.89
2022-09-28T11:54:55.994Z,14.19
2022-09-28T11:57:29.580Z,14.16
2022-09-28T12:00:02.748Z,13.81
2022-09-28T12:02:35.715Z,13.16
2022-09-28T12:05:18.411Z,13.81
2022-09-28T12:07:52.497Z,14.10
2022-09-28T12:10:34.222Z,14.19
2022-09-28T12:13:05.674Z,14.25
2022-09-28T12:16:15.077Z,14.02
2022-09-28T12:18:44.313Z,13.91
2022-09-28T12:21:28.788Z,14.14
2022-09-28T12:24:03.507Z,14.15
2022-09-28T12:26:41.349Z,14.08
2022-09-28T12:29:15.362Z,14.52
2022-09-28T12:31:56.901Z,14.19
2022-09-28T12:34:25.612Z,14.17
2022-09-28T12:37:09.377Z,13.85
2022-09-28T12:39:58.044Z,13.77
2022-09-28T12:43:00.135Z,13.62
2022-09-28T12:45:59.769Z,13.87
2022-09-28T12:49:21.670Z,13.85
2022-09-28T12:51:48.472Z,14.22
2022-09-28T12:54:38.858Z,14.19
2022-09-28T12:57:30.881Z,14.23
2022-09-28T13:00:06.168Z,14.05
2022-09-28T13:03:13.354Z,13.58
2022-09-28T13:06:06.674Z,13.02
2022-09-28T13:08:46.743Z,13.16
2022-09-28T13:11:26.184Z,13.71
2022-09-28T13:14:04.088Z,13.67
2022-09-28T13:16:41.669Z,14.02
2022-09-28T13:19:19.140Z,14.17
2022-09-28T13:21:56.808Z,13.61
2022-09-28T13:24:33.462Z,13.87
2022-09-28T13:27:07.466Z,14.12
2022-09-28T13:29:36.840Z,14.20
2022-09-28T13:32:09.586Z,13.68
2022-09-28T13:34:39.629Z,13.47
2022-09-28T13:37:26.015Z,12.34
2022-09-28T13:39:56.791Z,12.27
2022-09-28T13:42:31.859Z,12.67
2022-09-28T13:45:27.788Z,12.01
2022-09-28T13:48:12.205Z,12.78
2022-09-28T13:50:58.401Z,13.10
2022-09-28T13:53:37.563Z,12.25
2022-09-28T13:56:23.373Z,12.40
2022-09-28T13:58:56.989Z,13.18
2022-09-28T14:01:31.379Z,13.18
2022-09-28T14:04:17.564Z,13.03
2022-09-28T14:06:53.519Z,12.20
2022-09-28T14:09:41.453Z,11.35
2022-09-28T14:12:31.625Z,11.28
2022-09-28T14:15:00.849Z,11.30
2022-09-28T14:18:01.359Z,11.46
2022-09-28T14:20:32.493Z,11.95
2022-09-28T14:23:31.494Z,12.79
2022-09-28T14:26:15.806Z,12.79
2022-09-28T14:28:57.714Z,13.11
2022-09-28T14:31:29.389Z,13.70
2022-09-28T14:34:00.068Z,11.69
2022-09-28T14:36:59.552Z,13.27
2022-09-28T14:39:49.870Z,13.15
2022-09-28T14:42:21.519Z,13.11
2022-09-28T14:45:26.999Z,12.85
2022-09-28T14:48:20.845Z,12.89
2022-09-28T14:50:50.049Z,13.18
2022-09-28T14:53:25.021Z,12.57
2022-09-28T14:55:58.855Z,12.20
2022-09-28T14:58:30.065Z,12.71
2022-09-28T15:01:03.732Z,12.31
2022-09-28T15:03:34.371Z,12.93
2022-09-28T15:06:02.895Z,12.33
2022-09-28T15:08:39.984Z,12.32
2022-09-28T15:11:13.253Z,11.92
2022-09-28T15:13:42.830Z,12.53
2022-09-28T15:16:14.299Z,12.77
2022-09-28T15:19:14.275Z,12.81
2022-09-28T15:21:45.349Z,12.18
2022-09-28T15:24:31.727Z,13.16
2022-09-28T15:27:00.695Z,12.05
2022-09-28T15:29:31.701Z,12.39
2022-09-28T15:32:00.569Z,11.45
2022-09-28T15:34:49.129Z,10.93
2022-09-28T15:37:21.911Z,10.64
2022-09-28T15:39:53.357Z,10.31
2022-09-28T15:42:22.613Z,10.63
2022-09-28T15:45:26.668Z,11.74
2022-09-28T15:48:16.049Z,12.07
2022-09-28T15:51:02.466Z,13.08
2022-09-28T15:53:31.573Z,13.24
2022-09-28T15:56:10.203Z,13.71
2022-09-28T15:58:39.509Z,12.90
2022-09-28T16:01:36.546Z,11.60
2022-09-28T16:04:37.558Z,11.70
2022-09-28T16:07:39.447Z,11.85
2022-09-28T16:10:33.839Z,11.84
2022-09-28T16:13:17.815Z,11.07
2022-09-28T16:15:46.612Z,11.10
2022-09-28T16:18:22.129Z,12.11
2022-09-28T16:20:53.268Z,11.79
2022-09-28T16:23:26.010Z,12.16
2022-09-28T16:25:58.712Z,12.13
2022-09-28T16:28:52.891Z,11.56
2022-09-28T16:31:33.705Z,12.03
2022-09-28T16:34:17.538Z,11.51
2022-09-28T16:36:48.440Z,11.64
2022-09-28T16:39:18.512Z,11.23
2022-09-28T16:41:50.787Z,11.02
2022-09-28T16:44:25.801Z,11.28
2022-09-28T16:46:56.934Z,11.17
2022-09-28T16:49:26.363Z,11.40
2022-09-28T16:51:55.043Z,10.97
2022-09-28T16:54:42.757Z,10.37
2022-09-28T16:57:15.859Z,10.33
2022-09-28T16:59:45.607Z,11.13
2022-09-28T17:05:10.198Z,10.80
2022-09-28T17:07:38.716Z,11.89
2022-09-28T17:10:17.565Z,11.17
2022-09-28T17:12:46.064Z,12.36
2022-09-28T17:15:19.587Z,12.98
2022-09-28T17:17:48.572Z,13.35
2022-09-28T17:20:22.474Z,13.63
2022-09-28T17:22:51.000Z,13.70
2022-09-28T17:25:20.326Z,13.75
2022-09-28T17:27:50.414Z,13.78
2022-09-28T17:30:25.074Z,13.79
2022-09-28T17:32:53.927Z,13.73
2022-09-28T17:35:24.503Z,12.92
2022-09-28T17:37:54.197Z,12.64
2022-09-28T17:40:25.111Z,13.18
2022-09-28T17:42:56.160Z,13.42
2022-09-28T17:45:28.666Z,13.62
2022-09-28T17:47:58.346Z,13.66
2022-09-28T17:50:29.697Z,13.67
2022-09-28T17:52:59.966Z,13.68
2022-09-28T17:55:31.552Z,13.67
2022-09-28T17:58:01.031Z,13.65
2022-09-28T18:00:30.995Z,13.74
2022-09-28T18:03:00.097Z,13.82
2022-09-28T18:05:30.284Z,13.63
2022-09-28T18:07:59.184Z,11.93
2022-09-28T18:10:29.823Z,12.41
2022-09-28T18:12:58.348Z,13.03
2022-09-28T18:15:26.926Z,13.29
2022-09-28T18:17:56.859Z,13.48
2022-09-28T18:20:25.344Z,13.60
2022-09-28T18:22:53.877Z,13.37
2022-09-28T18:25:22.320Z,12.87
2022-09-28T18:27:53.081Z,12.79
2022-09-28T18:30:21.589Z,13.02
2022-09-28T18:32:50.009Z,12.97
2022-09-28T18:35:22.971Z,12.69
2022-09-28T18:37:51.922Z,12.31
2022-09-28T18:40:21.746Z,11.51
2022-09-28T18:42:51.850Z,11.64
2022-09-28T18:45:20.464Z,12.00
2022-09-28T18:47:48.915Z,11.99
2022-09-28T18:50:18.904Z,12.12
2022-09-28T18:52:48.261Z,12.05
2022-09-28T18:55:16.876Z,12.23
2022-09-28T18:57:46.387Z,11.83
2022-09-28T19:00:16.256Z,11.07
2022-09-28T19:02:44.765Z,11.20
2022-09-28T19:05:13.340Z,12.08
2022-09-28T19:07:43.132Z,12.63
2022-09-28T19:10:11.712Z,12.61
2022-09-28T19:12:40.177Z,12.91
2022-09-28T19:15:09.463Z,12.58
2022-09-28T19:17:38.047Z,12.86
2022-09-28T19:20:07.641Z,11.82
2022-09-28T19:22:36.085Z,12.03
2022-09-28T19:25:06.527Z,12.14
2022-09-28T19:27:34.984Z,12.67
2022-09-28T19:30:03.639Z,12.98
2022-09-28T19:32:32.128Z,13.08
2022-09-28T19:35:00.596Z,13.26
2022-09-28T19:37:29.041Z,12.92
2022-09-28T19:39:57.485Z,13.10
2022-09-28T19:42:27.362Z,13.20
2022-09-28T19:44:55.822Z,13.06
2022-09-28T19:47:24.249Z,13.04
2022-09-28T19:49:52.915Z,12.91
2022-09-28T19:52:21.465Z,13.11
2022-09-28T19:54:54.413Z,13.27
2022-09-28T19:57:24.796Z,12.12
2022-09-28T19:59:59.215Z,12.39
2022-09-28T20:02:29.751Z,12.14
2022-09-28T20:04:58.292Z,12.52
2022-09-28T20:07:26.789Z,12.44
2022-09-28T20:09:55.368Z,12.38
2022-09-28T20:12:23.813Z,12.18
2022-09-28T20:14:53.625Z,12.33
2022-09-28T20:17:22.122Z,12.73
2022-09-28T20:19:51.632Z,12.82
2022-09-28T20:22:20.385Z,12.65
2022-09-28T20:24:48.971Z,12.82
2022-09-28T20:27:17.461Z,12.69
2022-09-28T20:29:45.935Z,12.77
2022-09-28T20:32:16.193Z,12.97
2022-09-28T20:34:44.641Z,13.01
2022-09-28T20:37:14.024Z,13.02
2022-09-28T20:39:44.976Z,13.07
2022-09-28T20:42:15.471Z,13.09
2022-09-28T20:44:44.099Z,13.10
2022-09-28T20:47:12.683Z,13.16
2022-09-28T20:49:42.520Z,13.15
2022-09-28T20:52:11.277Z,13.21
2022-09-28T20:54:39.750Z,13.23
2022-09-28T20:57:17.571Z,13.10
2022-09-28T20:59:48.783Z,13.08
2022-09-28T21:02:21.792Z,12.90
2022-09-28T21:04:51.936Z,12.98
2022-09-28T21:07:20.453Z,12.80
2022-09-28T21:09:48.946Z,12.09
2022-09-28T21:12:18.113Z,12.53
2022-09-28T21:14:46.586Z,12.77
2022-09-28T21:17:15.066Z,12.07
2022-09-28T21:19:43.540Z,10.77
2022-09-28T21:22:13.484Z,11.15
2022-09-28T21:24:41.926Z,11.52
2022-09-28T21:27:10.387Z,11.35
2022-09-28T21:29:38.832Z,11.68
2022-09-28T21:32:08.229Z,12.29
2022-09-28T21:34:36.848Z,12.51
2022-09-28T21:37:05.023Z,12.55
2022-09-28T21:39:34.912Z,12.69
2022-09-28T21:42:03.393Z,12.79
2022-09-28T21:44:31.880Z,12.67
2022-09-28T21:47:00.380Z,12.70
2022-09-28T21:49:28.839Z,12.81
2022-09-28T21:51:57.301Z,12.88
2022-09-28T21:54:25.860Z,12.80
2022-09-28T21:56:55.681Z,12.72
2022-09-28T21:59:24.150Z,12.23
2022-09-28T22:01:52.687Z,12.56
2022-09-28T22:04:21.191Z,12.55
2022-09-28T22:06:49.663Z,10.90
2022-09-28T22:09:18.132Z,11.03
2022-09-28T22:11:49.045Z,11.79
2022-09-28T22:14:18.683Z,12.10
2022-09-28T22:16:47.234Z,12.35
2022-09-28T22:19:15.776Z,12.46
2022-09-28T22:21:44.440Z,12.58
2022-09-28T22:24:12.890Z,12.59
2022-09-28T22:26:41.365Z,12.54
2022-09-28T22:29:11.321Z,12.59
2022-09-28T22:31:42.261Z,12.63
2022-09-28T22:34:11.319Z,12.58
2022-09-28T22:36:39.839Z,12.57
2022-09-28T22:39:08.329Z,12.56
2022-09-28T22:41:36.814Z,12.54
2022-09-28T22:44:05.443Z,12.52
2022-09-28T22:46:34.017Z,12.55
2022-09-28T22:49:04.025Z,12.58
2022-09-28T22:51:32.790Z,12.56
2022-09-28T22:54:01.323Z,12.55
2022-09-28T22:56:30.351Z,12.69
2022-09-28T22:58:58.841Z,12.65
2022-09-28T23:01:29.025Z,12.21
2022-09-28T23:03:58.688Z,12.09
2022-09-28T23:06:30.773Z,12.26
2022-09-28T23:08:59.521Z,12.34
2022-09-28T23:11:28.606Z,12.37
2022-09-28T23:13:58.901Z,12.41
2022-09-28T23:16:28.334Z,12.48
2022-09-28T23:18:57.318Z,12.54
2022-09-28T23:21:28.143Z,12.37
2022-09-28T23:23:58.617Z,12.40
2022-09-28T23:26:29.075Z,12.61
2022-09-28T23:28:57.598Z,12.27
2022-09-28T23:31:28.882Z,11.73
2022-09-28T23:34:01.296Z,12.05
2022-09-28T23:36:31.444Z,12.19
2022-09-28T23:39:00.103Z,12.29
2022-09-28T23:41:28.671Z,12.29
2022-09-28T23:43:57.078Z,12.29
2022-09-28T23:46:25.555Z,12.25
2022-09-28T23:48:53.887Z,12.27
2022-09-28T23:51:22.398Z,12.29
2022-09-28T23:53:51.981Z,12.28
2022-09-28T23:56:20.148Z,12.26
2022-09-28T23:58:48.319Z,12.28
